createdAt,value
2022-10-20T03:17:33.302Z,16.17
2022-10-20T03:20:07.853Z,13.23
2022-10-20T03:22:36.453Z,24.03
2022-10-20T03:25:06.473Z,14.23
2022-10-20T03:27:35.326Z,11.10
2022-10-20T03:30:04.492Z,17.53
2022-10-20T03:32:34.864Z,13.30
2022-10-20T03:35:04.802Z,12.23
2022-10-20T03:37:33.228Z,13.23
2022-10-20T03:40:03.636Z,15.37
2022-10-20T03:42:32.076Z,16.83
2022-10-20T03:45:02.887Z,14.87
2022-10-20T03:47:37.469Z,14.70
2022-10-20T03:50:08.904Z,12.93
2022-10-20T03:52:37.906Z,12.47
2022-10-20T03:55:07.183Z,15.73
2022-10-20T03:57:35.929Z,15.57
2022-10-20T04:00:04.989Z,14.47
2022-10-20T04:02:43.771Z,18.10
2022-10-20T04:05:15.183Z,15.63
2022-10-20T04:07:43.827Z,13.90
2022-10-20T04:10:12.853Z,12.37
2022-10-20T04:12:41.645Z,17.20
2022-10-20T04:15:11.175Z,19.97
2022-10-20T04:17:41.032Z,18.00
2022-10-20T04:20:10.048Z,19.07
2022-10-20T04:22:40.612Z,17.83
2022-10-20T04:25:12.179Z,23.13
2022-10-20T04:27:40.760Z,21.77
2022-10-20T04:30:10.736Z,16.40
2022-10-20T04:32:40.675Z,17.93
2022-10-20T04:35:14.983Z,13.83
2022-10-20T04:38:13.034Z,19.73
2022-10-20T04:41:04.166Z,23.37
2022-10-20T04:43:40.305Z,24.90
2022-10-20T04:46:30.296Z,17.93
2022-10-20T04:49:23.512Z,16.60
2022-10-20T04:52:01.035Z,15.53
2022-10-20T04:54:33.949Z,15.90
2022-10-20T04:57:04.482Z,22.70
2022-10-20T04:59:36.004Z,18.20
2022-10-20T05:02:04.861Z,18.10
2022-10-20T05:04:40.563Z,21.33
2022-10-20T05:07:10.678Z,24.47
2022-10-20T05:09:43.799Z,26.87
2022-10-20T05:12:12.394Z,26.00
2022-10-20T05:14:41.144Z,35.37
2022-10-20T05:17:12.579Z,25.03
2022-10-20T05:19:47.090Z,25.07
2022-10-20T05:22:17.056Z,36.87
2022-10-20T05:24:50.160Z,28.57
2022-10-20T05:27:19.169Z,25.40
2022-10-20T05:29:55.164Z,30.60
2022-10-20T05:32:26.977Z,26.03
2022-10-20T05:35:02.736Z,24.43
2022-10-20T05:37:36.857Z,34.57
2022-10-20T05:40:08.527Z,23.53
2022-10-20T05:42:37.732Z,22.40
2022-10-20T05:45:07.450Z,30.57
2022-10-20T05:47:36.225Z,24.20
2022-10-20T05:50:09.155Z,28.40
2022-10-20T05:52:46.089Z,21.83
2022-10-20T05:55:27.279Z,21.07
2022-10-20T05:57:58.390Z,26.80
2022-10-20T06:00:32.357Z,23.73
2022-10-20T06:03:01.162Z,20.60
2022-10-20T06:05:34.144Z,18.93
2022-10-20T06:08:07.342Z,21.93
2022-10-20T06:10:38.413Z,20.37
2022-10-20T06:13:12.241Z,22.03
2022-10-20T06:15:44.474Z,25.83
2022-10-20T06:18:17.232Z,18.17
2022-10-20T06:20:59.573Z,17.97
2022-10-20T06:23:31.922Z,18.67
2022-10-20T06:26:05.567Z,20.10
2022-10-20T06:28:35.507Z,24.90
2022-10-20T06:31:12.966Z,22.20
2022-10-20T06:33:43.003Z,21.67
2022-10-20T06:36:14.730Z,23.37
2022-10-20T06:38:43.989Z,20.33
2022-10-20T06:41:14.295Z,28.40
2022-10-20T06:43:42.620Z,25.23
2022-10-20T06:46:16.171Z,25.33
2022-10-20T06:48:44.599Z,26.93
2022-10-20T06:51:20.650Z,21.70
2022-10-20T06:53:50.897Z,27.17
2022-10-20T06:56:24.477Z,27.13
2022-10-20T06:59:00.902Z,21.65
2022-10-20T07:01:42.757Z,16.33
2022-10-20T07:04:20.185Z,13.85
2022-10-20T07:06:54.437Z,17.65
2022-10-20T07:09:25.165Z,16.60
2022-10-20T07:11:54.057Z,21.40
2022-10-20T07:14:31.467Z,11.82
2022-10-20T07:17:02.517Z,13.90
2022-10-20T07:19:31.893Z,21.75
2022-10-20T07:22:28.789Z,22.00
2022-10-20T07:25:03.652Z,25.92
2022-10-20T07:27:36.580Z,24.65
2022-10-20T07:30:14.820Z,21.15
2022-10-20T07:32:49.656Z,16.55
2022-10-20T07:35:21.147Z,18.05
2022-10-20T07:37:53.334Z,17.83
2022-10-20T07:40:21.932Z,21.08
2022-10-20T07:42:55.184Z,27.40
2022-10-20T07:45:24.654Z,19.48
2022-10-20T07:47:55.503Z,17.40
2022-10-20T07:50:25.012Z,16.20
2022-10-20T07:52:55.245Z,14.15
2022-10-20T07:55:38.151Z,15.70
2022-10-20T07:58:16.534Z,11.38
2022-10-20T08:00:45.278Z,14.77
2022-10-20T08:03:20.305Z,18.00
2022-10-20T08:05:53.449Z,14.65
2022-10-20T08:08:27.494Z,16.83
2022-10-20T08:10:58.146Z,17.27
2022-10-20T08:13:28.445Z,17.88
2022-10-20T08:15:59.202Z,15.77
2022-10-20T08:18:31.764Z,14.65
2022-10-20T08:21:16.817Z,10.55
2022-10-20T08:23:48.723Z,10.52
2022-10-20T08:26:22.609Z,14.35
2022-10-20T08:28:53.551Z,11.07
2022-10-20T08:31:23.333Z,10.73
2022-10-20T08:33:54.077Z,9.18
2022-10-20T08:36:24.775Z,10.35
2022-10-20T08:38:56.541Z,12.70
2022-10-20T08:41:34.488Z,10.85
2022-10-20T08:44:08.622Z,13.02
2022-10-20T08:46:42.664Z,9.88
2022-10-20T08:49:21.346Z,11.88
2022-10-20T08:51:50.312Z,15.95
2022-10-20T08:57:38.722Z,15.10
2022-10-20T09:00:17.324Z,13.75
2022-10-20T09:02:47.157Z,12.27
2022-10-20T09:05:19.177Z,8.45
2022-10-20T09:07:50.129Z,14.35
2022-10-20T09:10:31.238Z,9.05
2022-10-20T09:13:01.674Z,10.80
2022-10-20T09:15:30.694Z,14.18
2022-10-20T09:18:01.786Z,11.52
2022-10-20T09:20:35.049Z,7.20
2022-10-20T09:23:07.998Z,8.13
2022-10-20T09:25:46.091Z,5.57
2022-10-20T09:28:24.469Z,5.35
2022-10-20T09:30:52.997Z,5.22
2022-10-20T09:33:24.680Z,10.85
2022-10-20T09:35:53.861Z,3.90
2022-10-20T09:38:26.619Z,5.13
2022-10-20T09:41:08.170Z,6.63
2022-10-20T09:43:40.634Z,17.23
2022-10-20T09:46:12.291Z,9.05
2022-10-20T09:48:43.339Z,17.63
2022-10-20T09:51:16.690Z,8.45
2022-10-20T09:53:53.725Z,9.65
2022-10-20T09:56:28.126Z,15.15
2022-10-20T09:59:00.341Z,8.70
2022-10-20T10:01:29.102Z,5.78
2022-10-20T10:04:01.979Z,4.35
2022-10-20T10:06:42.917Z,2.88
2022-10-20T10:09:31.177Z,2.33
2022-10-20T10:12:01.344Z,3.90
2022-10-20T10:14:33.581Z,3.13
2022-10-20T10:17:02.764Z,6.07
2022-10-20T10:19:33.213Z,4.38
2022-10-20T10:22:03.874Z,5.50
2022-10-20T10:24:42.903Z,3.53
2022-10-20T10:27:23.478Z,2.00
2022-10-20T10:29:53.662Z,1.92
2022-10-20T10:32:26.918Z,1.33
2022-10-20T10:35:23.709Z,1.85
2022-10-20T10:37:53.444Z,1.30
2022-10-20T10:40:24.354Z,2.20
2022-10-20T10:43:06.184Z,1.30
2022-10-20T10:45:45.567Z,0.82
2022-10-20T10:48:45.698Z,2.33
2022-10-20T10:51:23.242Z,2.17
2022-10-20T10:54:10.796Z,1.38
2022-10-20T10:56:45.462Z,3.33
2022-10-20T10:59:19.692Z,1.75
2022-10-20T11:02:20.810Z,1.05
2022-10-20T11:05:21.003Z,4.40
2022-10-20T11:07:57.504Z,2.25
2022-10-20T11:10:32.830Z,2.05
2022-10-20T11:13:10.849Z,3.03
2022-10-20T11:15:54.649Z,1.50
2022-10-20T11:18:47.044Z,1.27
2022-10-20T11:21:29.868Z,2.95
2022-10-20T11:24:12.869Z,1.52
2022-10-20T11:26:44.322Z,2.08
2022-10-20T11:29:17.114Z,1.00
2022-10-20T11:31:51.089Z,0.90
2022-10-20T11:34:28.628Z,1.42
2022-10-20T11:37:06.107Z,1.65
2022-10-20T11:39:41.351Z,1.75
2022-10-20T11:42:20.325Z,5.90
2022-10-20T11:44:49.963Z,7.25
2022-10-20T11:47:22.402Z,3.55
2022-10-20T11:49:50.870Z,1.55
2022-10-20T11:52:44.259Z,1.67
2022-10-20T11:55:36.224Z,1.88
2022-10-20T11:58:27.288Z,2.33
2022-10-20T12:01:05.186Z,1.67
2022-10-20T12:04:06.417Z,1.70
2022-10-20T12:07:07.730Z,1.83
2022-10-20T12:09:59.230Z,2.10
2022-10-20T12:12:34.951Z,1.73
2022-10-20T12:15:04.744Z,4.07
2022-10-20T12:17:36.557Z,2.47
2022-10-20T12:20:51.639Z,2.72
2022-10-20T12:23:54.895Z,8.57
2022-10-20T12:26:43.861Z,4.72
2022-10-20T12:30:02.118Z,4.35
2022-10-20T12:33:01.076Z,1.65
2022-10-20T12:36:01.853Z,2.33
2022-10-20T12:38:31.917Z,1.52
2022-10-20T12:41:02.493Z,5.70
2022-10-20T12:43:54.236Z,5.10
2022-10-20T12:46:26.833Z,1.60
2022-10-20T12:49:00.150Z,2.00
2022-10-20T12:51:36.195Z,2.25
2022-10-20T12:54:16.245Z,1.30
2022-10-20T12:56:45.340Z,0.77
2022-10-20T12:59:39.411Z,0.73
2022-10-20T13:02:44.897Z,2.45
2022-10-20T13:05:48.349Z,1.17
2022-10-20T13:08:28.310Z,2.47
2022-10-20T13:10:57.633Z,3.03
2022-10-20T13:13:46.409Z,3.38
2022-10-20T13:16:21.435Z,3.95
2022-10-20T13:18:51.695Z,2.10
2022-10-20T13:21:32.408Z,4.50
2022-10-20T13:24:07.859Z,1.27
2022-10-20T13:26:40.382Z,1.88
2022-10-20T13:29:15.386Z,1.20
2022-10-20T13:31:51.864Z,3.55
2022-10-20T13:34:26.806Z,2.35
2022-10-20T13:37:10.408Z,2.35
2022-10-20T13:39:51.610Z,3.67
2022-10-20T13:42:41.382Z,2.38
2022-10-20T13:45:20.503Z,3.83
2022-10-20T13:48:05.114Z,4.60
2022-10-20T13:50:35.983Z,2.35
2022-10-20T13:53:06.417Z,1.48
2022-10-20T13:55:58.543Z,1.80
2022-10-20T13:58:27.763Z,5.03
2022-10-20T14:00:59.548Z,2.20
2022-10-20T14:03:31.103Z,5.38
2022-10-20T14:06:00.133Z,4.75
2022-10-20T14:08:28.523Z,3.97
2022-10-20T14:10:59.626Z,1.98
2022-10-20T14:13:31.855Z,1.75
2022-10-20T14:16:01.339Z,2.00
2022-10-20T14:18:35.405Z,5.88
2022-10-20T14:21:06.509Z,4.78
2022-10-20T14:23:39.116Z,3.58
2022-10-20T14:26:12.142Z,1.90
2022-10-20T14:28:41.347Z,5.07
2022-10-20T14:31:12.544Z,7.03
2022-10-20T14:33:46.790Z,2.90
2022-10-20T14:36:21.422Z,7.60
2022-10-20T14:38:51.301Z,3.92
2022-10-20T14:41:27.242Z,3.08
2022-10-20T14:44:03.388Z,2.90
2022-10-20T14:46:36.962Z,3.22
2022-10-20T14:49:16.028Z,3.83
2022-10-20T14:51:48.305Z,3.55
2022-10-20T14:54:32.356Z,5.45
2022-10-20T14:57:02.311Z,3.33
2022-10-20T14:59:31.738Z,4.78
2022-10-20T15:02:08.156Z,1.70
2022-10-20T15:04:39.027Z,11.98
2022-10-20T15:07:13.425Z,3.97
2022-10-20T15:09:43.857Z,2.90
2022-10-20T15:12:18.537Z,4.80
2022-10-20T15:14:49.059Z,5.10
2022-10-20T15:17:38.342Z,7.05
2022-10-20T15:20:38.926Z,3.20
2022-10-20T15:23:10.092Z,5.50
2022-10-20T15:25:46.573Z,4.72
2022-10-20T15:28:28.701Z,10.43
2022-10-20T15:30:57.092Z,8.05
2022-10-20T15:33:25.655Z,5.35
2022-10-20T15:35:55.830Z,4.22
2022-10-20T15:38:24.416Z,75.50
2022-10-20T15:40:52.812Z,385.80
2022-10-20T15:43:21.166Z,328.83
2022-10-20T15:45:53.414Z,102.63
2022-10-20T15:48:23.248Z,47.65
2022-10-20T15:50:53.146Z,22.05
2022-10-20T15:53:22.873Z,19.08
2022-10-20T15:55:51.730Z,14.68
2022-10-20T15:58:20.934Z,15.30
2022-10-20T16:00:49.196Z,12.02
2022-10-20T16:03:21.299Z,8.10
2022-10-20T16:05:49.682Z,3.30
2022-10-20T16:08:17.949Z,2.90
2022-10-20T16:10:47.662Z,4.47
2022-10-20T16:13:18.485Z,25.00
2022-10-20T16:15:46.861Z,13.20
2022-10-20T16:18:15.150Z,6.75
2022-10-20T16:20:43.416Z,4.03
2022-10-20T16:23:11.763Z,6.90
2022-10-20T16:25:41.136Z,8.60
2022-10-20T16:28:10.977Z,33.13
2022-10-20T16:30:39.352Z,37.25
2022-10-20T16:33:07.677Z,30.77
2022-10-20T16:35:36.057Z,25.45
2022-10-20T16:38:04.727Z,10.50
2022-10-20T16:40:32.990Z,6.07
2022-10-20T16:43:01.783Z,5.75
2022-10-20T16:45:31.384Z,18.17
2022-10-20T16:47:59.652Z,10.02
2022-10-20T16:50:28.022Z,13.73
2022-10-20T16:52:56.460Z,10.65
2022-10-20T16:55:24.638Z,9.43
2022-10-20T16:57:55.873Z,11.52
2022-10-20T17:00:24.192Z,8.98
2022-10-20T17:02:56.392Z,14.90
2022-10-20T17:05:26.607Z,22.52
2022-10-20T17:07:55.455Z,37.08
2022-10-20T17:10:23.703Z,32.95
2022-10-20T17:12:52.338Z,21.67
2022-10-20T17:15:20.632Z,12.63
2022-10-20T17:17:49.024Z,13.15
2022-10-20T17:20:18.870Z,8.15
2022-10-20T17:22:48.054Z,15.82
2022-10-20T17:25:16.560Z,13.13
2022-10-20T17:27:44.840Z,9.27
2022-10-20T17:30:14.070Z,12.55
2022-10-20T17:32:43.214Z,12.73
2022-10-20T17:35:12.514Z,14.18
2022-10-20T17:37:42.187Z,11.30
2022-10-20T17:40:11.344Z,12.60
2022-10-20T17:42:41.400Z,14.20
2022-10-20T17:45:11.355Z,10.32
2022-10-20T17:47:39.693Z,13.68
2022-10-20T17:52:37.040Z,22.27
2022-10-20T17:55:08.037Z,22.33
2022-10-20T17:57:36.430Z,17.60
2022-10-20T18:00:11.080Z,16.92
2022-10-20T18:02:48.169Z,15.88
2022-10-20T18:05:16.655Z,25.85
2022-10-20T18:07:44.937Z,28.77
2022-10-20T18:10:14.671Z,28.20
2022-10-20T18:12:42.960Z,17.23
2022-10-20T18:15:11.351Z,21.38
2022-10-20T18:17:39.611Z,15.85
2022-10-20T18:20:08.635Z,17.63
2022-10-20T18:22:37.165Z,13.97
2022-10-20T18:25:07.497Z,15.32
2022-10-20T18:27:37.310Z,12.97
2022-10-20T18:30:08.125Z,15.43
2022-10-20T18:32:36.935Z,17.60
2022-10-20T18:35:05.786Z,15.43
2022-10-20T18:37:34.496Z,92.88
2022-10-20T18:40:03.378Z,91.72
2022-10-20T18:42:31.659Z,120.00
2022-10-20T18:45:01.281Z,50.13
2022-10-20T18:47:29.743Z,31.93
2022-10-20T18:49:58.011Z,53.17
2022-10-20T18:52:26.435Z,40.37
2022-10-20T18:54:55.190Z,35.60
2022-10-20T18:57:23.449Z,40.20
2022-10-20T18:59:51.820Z,47.83
2022-10-20T19:02:21.501Z,31.30
2022-10-20T19:04:49.819Z,25.33
2022-10-20T19:07:18.076Z,49.57
2022-10-20T19:09:46.457Z,52.47
2022-10-20T19:12:14.763Z,75.03
2022-10-20T19:14:43.156Z,143.43
2022-10-20T19:17:11.505Z,124.57
2022-10-20T19:19:41.917Z,68.80
2022-10-20T19:22:10.322Z,37.10
2022-10-20T19:24:40.616Z,98.43
2022-10-20T19:27:25.461Z,70.03
2022-10-20T19:29:56.045Z,37.33
2022-10-20T19:32:24.523Z,38.60
2022-10-20T19:34:54.207Z,40.83
2022-10-20T19:37:22.486Z,40.47
2022-10-20T19:39:51.124Z,70.63
2022-10-20T19:42:19.413Z,97.80
2022-10-20T19:44:48.144Z,96.37
2022-10-20T19:47:16.828Z,63.93
2022-10-20T19:49:45.330Z,35.03
2022-10-20T19:52:14.969Z,30.60
2022-10-20T19:54:43.414Z,35.73
2022-10-20T19:57:11.733Z,37.53
2022-10-20T19:59:40.079Z,31.60
2022-10-20T20:02:08.801Z,37.20
2022-10-20T20:04:37.011Z,37.53
2022-10-20T20:07:05.514Z,35.10
2022-10-20T20:09:35.270Z,30.73
2022-10-20T20:12:03.747Z,30.03
2022-10-20T20:14:31.955Z,32.47
2022-10-20T20:17:00.458Z,30.97
2022-10-20T20:19:28.856Z,38.03
2022-10-20T20:21:57.154Z,31.30
2022-10-20T20:24:25.506Z,32.70
2022-10-20T20:26:55.158Z,36.63
2022-10-20T20:29:23.474Z,34.23
2022-10-20T20:31:51.747Z,33.60
2022-10-20T20:34:20.154Z,34.43
2022-10-20T20:36:48.487Z,32.80
2022-10-20T20:39:16.740Z,36.00
2022-10-20T20:41:45.067Z,32.70
2022-10-20T20:44:14.772Z,37.70
2022-10-20T20:46:43.101Z,47.23
2022-10-20T20:49:11.392Z,40.70
2022-10-20T20:51:39.697Z,57.37
2022-10-20T20:54:08.947Z,55.10
2022-10-20T20:56:37.440Z,60.20
2022-10-20T20:59:05.719Z,39.13
2022-10-20T21:01:35.412Z,44.40
2022-10-20T21:04:05.574Z,54.50
2022-10-20T21:06:56.654Z,50.17
2022-10-20T21:09:22.654Z,53.57
2022-10-20T21:11:51.078Z,55.90
2022-10-20T21:14:19.393Z,58.07
2022-10-20T21:16:48.954Z,52.67
2022-10-20T21:19:17.419Z,58.17
2022-10-20T21:21:50.674Z,57.43
2022-10-20T21:24:19.764Z,61.07
2022-10-20T21:26:48.873Z,54.97
2022-10-20T21:29:17.401Z,54.60
2022-10-20T21:31:45.609Z,53.40
2022-10-20T21:34:15.553Z,53.23
2022-10-20T21:36:43.764Z,51.33
2022-10-20T21:39:15.921Z,53.80
2022-10-20T21:41:46.093Z,53.03
2022-10-20T21:44:15.495Z,54.83
2022-10-20T21:46:47.698Z,53.47
2022-10-20T21:49:19.278Z,53.90
2022-10-20T21:51:49.984Z,63.43
2022-10-20T21:56:54.241Z,57.87
2022-10-20T21:59:24.777Z,58.53
2022-10-20T22:01:54.739Z,61.70
2022-10-20T22:04:26.119Z,64.57
2022-10-20T22:06:55.158Z,57.60
2022-10-20T22:09:23.903Z,56.73
